KDKK/DKK METAR and TAF weather

Enter ICAO airport designator
Station Type Date Time Source
KDKK METAR 2018/10/22 15:53 UTC NOAA

KDKK 221553Z AUTO 21015G20KT 10SM CLR 09/M01 A3008 RMK AO2 SLP191 T00941006


Station Type Date Time Source
KDKK Decoded METAR 2018/10/22 15:53 UTC NOAA

CHAUTAUQUA COUNTY/DUNKIRK, NY, United States (KDKK) 42-30N 079-17W 202M
Oct 22, 2018 - 11:53 AM EDT / 2018.10.22 1553 UTC
Wind: from the SSW (210 degrees) at 17 MPH (15 KT) gusting to 23 MPH (20 KT):0
Visibility: 10 mile(s):0
Sky conditions: clear
Temperature: 48.9 F (9.4 C)
Dew Point: 30.9 F (-0.6 C)
Relative Humidity: 49%
Pressure (altimeter): 30.08 in. Hg (1018 hPa)
ob: KDKK 221553Z AUTO 21015G20KT 10SM CLR 09/M01 A3008 RMK AO2 SLP191 T00941006
cycle: 16

Station Type Date Time Source
KDKK TAF UTC NOAA

Error!


Example: see airport list